createdAt,value
2018-05-18T00:01:37.709Z,9.07
2018-05-18T00:04:03.568Z,11.73
2018-05-18T00:06:29.428Z,9.77
2018-05-18T00:08:55.325Z,8.73
2018-05-18T00:11:21.184Z,9.90
2018-05-18T00:13:47.041Z,9.80
2018-05-18T00:16:12.869Z,10.30
2018-05-18T00:18:38.736Z,9.80
2018-05-18T00:21:04.620Z,9.93
2018-05-18T00:23:30.481Z,11.60
2018-05-18T00:25:56.377Z,11.40
2018-05-18T00:28:22.245Z,12.83
2018-05-18T00:30:48.091Z,11.80
2018-05-18T00:33:13.934Z,11.63
2018-05-18T00:35:39.798Z,13.40
2018-05-18T00:38:05.664Z,12.57
2018-05-18T00:40:31.516Z,12.40
2018-05-18T00:42:57.346Z,14.50
2018-05-18T00:45:23.216Z,15.27
2018-05-18T00:47:49.093Z,12.47
2018-05-18T00:50:14.936Z,12.20
2018-05-18T00:52:40.764Z,11.73
2018-05-18T00:55:18.825Z,14.00
2018-05-18T00:57:44.685Z,13.23
2018-05-18T01:00:10.563Z,12.53
2018-05-18T01:02:36.516Z,13.23
2018-05-18T01:05:02.381Z,11.23
2018-05-18T01:07:28.214Z,9.93
2018-05-18T01:09:54.025Z,11.20
2018-05-18T01:12:19.888Z,11.00
2018-05-18T01:14:45.733Z,10.43
2018-05-18T01:17:11.568Z,11.43
2018-05-18T01:19:37.433Z,10.80
2018-05-18T01:22:03.314Z,11.63
2018-05-18T01:24:29.148Z,10.27
2018-05-18T01:26:54.993Z,10.67
2018-05-18T01:29:20.843Z,10.93
2018-05-18T01:31:46.701Z,10.70
2018-05-18T01:34:12.548Z,10.27
2018-05-18T01:36:38.370Z,10.57
2018-05-18T01:39:04.256Z,10.13
2018-05-18T01:41:30.139Z,9.53
2018-05-18T01:43:56.052Z,10.87
2018-05-18T01:46:21.930Z,11.13
2018-05-18T01:48:47.786Z,10.63
2018-05-18T01:51:13.657Z,10.77
2018-05-18T01:53:39.520Z,12.73
2018-05-18T01:56:05.369Z,12.83
2018-05-18T01:58:31.212Z,12.00
2018-05-18T02:00:57.069Z,10.10
2018-05-18T02:03:22.931Z,11.70
2018-05-18T02:05:48.808Z,9.10
2018-05-18T02:08:14.656Z,9.97
2018-05-18T02:10:40.492Z,9.10
2018-05-18T02:13:06.321Z,9.67
2018-05-18T02:15:32.159Z,9.43
2018-05-18T02:17:58.016Z,10.63
2018-05-18T02:20:23.865Z,9.43
2018-05-18T02:22:49.732Z,9.73
2018-05-18T02:25:15.583Z,10.23
2018-05-18T02:27:41.455Z,8.63
2018-05-18T02:30:07.358Z,10.10
2018-05-18T02:32:33.224Z,9.37
2018-05-18T02:34:59.088Z,10.00
2018-05-18T02:37:25.005Z,10.07
2018-05-18T02:39:50.858Z,9.43
2018-05-18T02:42:16.741Z,9.80
2018-05-18T02:44:42.645Z,9.90
2018-05-18T02:47:08.511Z,10.30
2018-05-18T02:49:34.396Z,9.30
2018-05-18T02:52:00.225Z,9.90
2018-05-18T02:54:26.086Z,8.37
2018-05-18T02:56:51.936Z,7.83
2018-05-18T02:59:17.761Z,9.10
2018-05-18T03:01:43.618Z,8.73
2018-05-18T03:04:09.484Z,8.60
2018-05-18T03:06:35.326Z,8.43
2018-05-18T03:09:01.185Z,8.90
2018-05-18T03:11:27.078Z,11.40
2018-05-18T03:13:52.899Z,9.57
2018-05-18T03:16:18.760Z,8.20
2018-05-18T03:18:44.590Z,9.33
2018-05-18T03:21:10.432Z,10.27
2018-05-18T03:23:36.289Z,10.23
2018-05-18T03:26:02.181Z,10.30
2018-05-18T03:28:28.024Z,11.57
2018-05-18T03:30:53.861Z,10.90
2018-05-18T03:33:19.721Z,9.50
2018-05-18T03:35:45.604Z,9.33
2018-05-18T03:38:11.453Z,10.20
2018-05-18T03:40:37.274Z,8.70
2018-05-18T03:43:03.125Z,9.23
2018-05-18T03:45:28.997Z,10.10
2018-05-18T03:47:54.972Z,9.23
2018-05-18T03:50:20.814Z,10.30
2018-05-18T03:52:46.644Z,9.17
2018-05-18T03:55:12.483Z,9.07
2018-05-18T03:57:38.329Z,11.70
2018-05-18T04:00:04.413Z,9.80
2018-05-18T04:02:42.673Z,11.70
2018-05-18T04:05:20.921Z,8.73
2018-05-18T04:07:59.004Z,8.27
2018-05-18T04:10:24.966Z,8.57
2018-05-18T04:12:50.720Z,8.80
2018-05-18T04:15:16.575Z,9.30
2018-05-18T04:17:42.433Z,8.00
2018-05-18T04:20:08.274Z,9.03
2018-05-18T04:22:34.128Z,8.83
2018-05-18T04:24:59.980Z,9.33
2018-05-18T04:27:25.836Z,9.67
2018-05-18T04:29:51.693Z,9.67
2018-05-18T04:32:17.556Z,11.17
2018-05-18T04:34:43.429Z,10.13
2018-05-18T04:37:09.294Z,10.67
2018-05-18T04:39:35.133Z,10.90
2018-05-18T04:42:01.002Z,10.40
2018-05-18T04:44:26.860Z,11.87
2018-05-18T04:46:52.725Z,11.67
2018-05-18T04:49:18.583Z,11.53
2018-05-18T04:51:44.448Z,10.67
2018-05-18T04:54:10.287Z,9.73
2018-05-18T04:56:36.112Z,11.33
2018-05-18T04:59:01.960Z,10.60
2018-05-18T05:01:27.814Z,12.00
2018-05-18T05:03:53.646Z,11.40
2018-05-18T05:06:19.520Z,9.70
2018-05-18T05:08:45.389Z,9.97
2018-05-18T05:11:11.217Z,10.67
2018-05-18T05:13:37.068Z,11.60
2018-05-18T05:16:02.896Z,11.30
2018-05-18T05:18:28.755Z,11.40
2018-05-18T05:20:54.692Z,12.10
2018-05-18T05:23:20.584Z,12.00
2018-05-18T05:25:46.412Z,12.10
2018-05-18T05:28:12.252Z,13.60
2018-05-18T05:30:38.185Z,13.93
2018-05-18T05:33:03.953Z,15.00
2018-05-18T05:35:29.812Z,13.03
2018-05-18T05:37:55.646Z,13.83
2018-05-18T05:40:21.504Z,14.77
2018-05-18T05:42:54.391Z,15.10
2018-05-18T05:45:20.237Z,16.60
2018-05-18T05:47:46.144Z,13.03
2018-05-18T05:50:12.021Z,12.13
2018-05-18T05:52:37.857Z,15.50
2018-05-18T05:55:03.776Z,12.83
2018-05-18T05:57:29.636Z,12.53
2018-05-18T05:59:55.477Z,13.37
2018-05-18T06:02:21.320Z,13.00
2018-05-18T06:04:47.160Z,15.67
2018-05-18T06:07:13.000Z,14.50
2018-05-18T06:09:38.872Z,15.07
2018-05-18T06:12:04.746Z,13.20
2018-05-18T06:14:30.613Z,13.23
2018-05-18T06:16:56.470Z,12.70
2018-05-18T06:19:22.357Z,13.23
2018-05-18T06:21:48.210Z,15.70
2018-05-18T06:24:14.077Z,12.70
2018-05-18T06:26:39.908Z,12.37
2018-05-18T06:29:05.728Z,13.50
2018-05-18T06:31:31.608Z,14.67
2018-05-18T06:33:57.502Z,13.00
2018-05-18T06:36:23.335Z,13.30
2018-05-18T06:38:49.164Z,13.20
2018-05-18T06:41:15.055Z,14.10
2018-05-18T06:43:40.864Z,10.60
2018-05-18T06:46:06.755Z,12.20
2018-05-18T06:48:32.605Z,10.87
2018-05-18T06:50:58.476Z,12.30
2018-05-18T06:53:24.341Z,13.30
2018-05-18T06:55:50.196Z,10.80
2018-05-18T06:58:16.033Z,12.23
2018-05-18T07:00:41.897Z,12.17
2018-05-18T07:03:07.735Z,13.97
2018-05-18T07:05:33.637Z,13.87
2018-05-18T07:07:59.465Z,12.70
2018-05-18T07:10:25.306Z,11.03
2018-05-18T07:12:51.167Z,12.20
2018-05-18T07:15:17.029Z,11.93
2018-05-18T07:17:42.898Z,11.33
2018-05-18T07:20:08.778Z,11.23
2018-05-18T07:22:34.647Z,11.13
2018-05-18T07:25:00.519Z,12.50
2018-05-18T07:27:26.388Z,10.97
2018-05-18T07:29:52.225Z,11.57
2018-05-18T07:32:18.097Z,11.60
2018-05-18T07:34:43.988Z,10.77
2018-05-18T07:37:09.829Z,11.43
2018-05-18T07:39:35.683Z,12.50
2018-05-18T07:42:01.498Z,11.07
2018-05-18T07:44:27.352Z,10.57
2018-05-18T07:46:53.218Z,12.17
2018-05-18T07:49:19.080Z,12.17
2018-05-18T07:51:44.932Z,11.27
2018-05-18T07:54:10.798Z,10.57
2018-05-18T07:56:36.633Z,12.93
2018-05-18T07:59:02.505Z,11.50
2018-05-18T08:01:28.360Z,11.93
2018-05-18T08:03:54.316Z,12.10
2018-05-18T08:06:20.149Z,12.17
2018-05-18T08:08:46.015Z,9.90
2018-05-18T08:11:11.879Z,10.63
2018-05-18T08:13:37.703Z,9.17
2018-05-18T08:16:03.606Z,9.90
2018-05-18T08:18:29.435Z,10.70
2018-05-18T08:20:55.280Z,12.37
2018-05-18T08:23:21.156Z,10.43
2018-05-18T08:25:47.017Z,11.30
2018-05-18T08:28:12.859Z,12.40
2018-05-18T08:30:51.018Z,10.77
2018-05-18T08:33:16.848Z,11.97
2018-05-18T08:35:42.708Z,11.70
2018-05-18T08:38:08.566Z,11.50
2018-05-18T08:40:34.404Z,9.60
2018-05-18T08:43:00.368Z,8.90
2018-05-18T08:45:26.272Z,9.70
2018-05-18T08:47:52.181Z,10.87
2018-05-18T08:50:18.107Z,12.23
2018-05-18T08:52:43.908Z,10.70
2018-05-18T08:55:09.745Z,10.17
2018-05-18T08:57:35.614Z,9.53
2018-05-18T09:00:01.453Z,11.20
2018-05-18T09:02:27.316Z,9.30
2018-05-18T09:04:53.184Z,10.40
2018-05-18T09:07:19.034Z,9.80
2018-05-18T09:09:44.893Z,9.60
2018-05-18T09:12:10.741Z,10.50
2018-05-18T09:14:36.641Z,9.40
2018-05-18T09:17:02.478Z,9.93
2018-05-18T09:19:28.305Z,9.33
2018-05-18T09:21:54.170Z,9.70
2018-05-18T09:24:20.009Z,8.63
2018-05-18T09:26:45.884Z,8.60
2018-05-18T09:29:11.717Z,9.00
2018-05-18T09:31:37.583Z,12.40
2018-05-18T09:34:03.456Z,12.20
2018-05-18T09:36:29.364Z,10.53
2018-05-18T09:38:55.220Z,11.00
2018-05-18T09:41:21.089Z,10.03
2018-05-18T09:43:46.985Z,9.80
2018-05-18T09:46:12.841Z,6.37
2018-05-18T09:48:38.688Z,5.80
2018-05-18T09:51:04.521Z,6.47
2018-05-18T09:53:30.380Z,7.43
2018-05-18T09:55:56.235Z,7.50
2018-05-18T09:58:22.081Z,7.57
2018-05-18T10:00:47.949Z,8.07
2018-05-18T10:03:13.809Z,7.00
2018-05-18T10:05:39.626Z,6.83
2018-05-18T10:08:05.465Z,6.10
2018-05-18T10:10:31.334Z,6.80
2018-05-18T10:12:57.157Z,7.30
2018-05-18T10:15:23.009Z,7.77
2018-05-18T10:17:48.844Z,7.33
2018-05-18T10:20:14.724Z,6.30
2018-05-18T10:22:40.561Z,7.07
2018-05-18T10:25:06.384Z,8.10
2018-05-18T10:27:32.338Z,8.10
2018-05-18T10:29:58.137Z,8.23
2018-05-18T10:32:24.017Z,10.70
2018-05-18T10:34:49.853Z,5.33
2018-05-18T10:37:15.741Z,5.60
2018-05-18T10:39:41.614Z,7.13
2018-05-18T10:42:07.535Z,9.03
2018-05-18T10:44:33.373Z,9.67
2018-05-18T10:46:59.229Z,9.40
2018-05-18T10:49:25.259Z,9.80
2018-05-18T10:51:51.041Z,10.93
2018-05-18T10:54:16.898Z,9.77
2018-05-18T10:56:42.760Z,8.80
2018-05-18T10:59:08.630Z,10.60
2018-05-18T11:01:34.500Z,9.80
2018-05-18T11:04:00.387Z,10.27
2018-05-18T11:06:26.293Z,9.03
2018-05-18T11:08:52.156Z,8.30
2018-05-18T11:11:18.022Z,10.13
2018-05-18T11:13:43.853Z,10.83
2018-05-18T11:16:09.690Z,10.13
2018-05-18T11:18:35.550Z,10.07
2018-05-18T11:21:01.397Z,8.93
2018-05-18T11:23:27.269Z,8.10
2018-05-18T11:25:53.144Z,8.90
2018-05-18T11:28:19.011Z,9.10
2018-05-18T11:30:44.874Z,8.20
2018-05-18T11:33:10.754Z,7.50
2018-05-18T11:35:36.565Z,7.07
2018-05-18T11:38:02.416Z,6.80
2018-05-18T11:40:28.261Z,5.90
2018-05-18T11:42:54.124Z,7.67
2018-05-18T11:45:19.964Z,7.43
2018-05-18T11:47:45.818Z,6.00
2018-05-18T11:50:11.662Z,7.13
2018-05-18T11:52:37.505Z,6.33
2018-05-18T11:55:03.483Z,6.13
2018-05-18T11:57:29.341Z,5.73
2018-05-18T11:59:55.184Z,6.13
2018-05-18T12:02:21.117Z,4.83
2018-05-18T12:04:46.913Z,5.30
2018-05-18T12:07:12.737Z,6.43
2018-05-18T12:09:38.609Z,8.40
2018-05-18T12:12:04.488Z,7.57
2018-05-18T12:14:30.364Z,8.73
2018-05-18T12:16:56.216Z,9.27
2018-05-18T12:19:22.061Z,7.57
2018-05-18T12:21:47.905Z,7.30
2018-05-18T12:24:13.741Z,9.37
2018-05-18T12:26:39.590Z,8.57
2018-05-18T12:29:05.460Z,6.67
2018-05-18T12:31:31.419Z,7.07
2018-05-18T12:33:57.166Z,8.20
2018-05-18T12:36:23.032Z,5.80
2018-05-18T12:38:48.875Z,9.40
2018-05-18T12:41:14.753Z,7.83
2018-05-18T12:43:40.635Z,6.70
2018-05-18T12:46:06.520Z,6.63
2018-05-18T12:48:32.412Z,7.17
2018-05-18T12:50:58.252Z,6.80
2018-05-18T12:53:24.138Z,6.87
2018-05-18T12:55:50.024Z,5.70
2018-05-18T12:58:15.873Z,6.93
2018-05-18T13:00:41.722Z,5.10
2018-05-18T13:03:07.545Z,5.90
2018-05-18T13:05:33.417Z,6.10
2018-05-18T13:07:59.287Z,6.40
2018-05-18T13:10:25.145Z,5.40
2018-05-18T13:12:50.997Z,6.63
2018-05-18T13:15:16.895Z,6.47
2018-05-18T13:17:42.800Z,7.13
2018-05-18T13:20:08.616Z,6.03
2018-05-18T13:22:34.477Z,5.63
2018-05-18T13:25:00.471Z,6.67
2018-05-18T13:27:26.231Z,5.87
2018-05-18T13:29:52.112Z,5.90
2018-05-18T13:32:17.963Z,5.40
2018-05-18T13:34:43.794Z,5.37
2018-05-18T13:37:09.677Z,6.30
2018-05-18T13:39:35.550Z,5.30
2018-05-18T13:42:01.428Z,5.03
2018-05-18T13:44:27.288Z,5.60
2018-05-18T13:46:53.357Z,5.17
2018-05-18T13:49:19.212Z,6.30
2018-05-18T13:51:45.172Z,6.00
2018-05-18T13:54:10.989Z,5.70
2018-05-18T13:56:36.870Z,7.60
2018-05-18T13:59:02.771Z,6.97
2018-05-18T14:01:28.610Z,6.57
2018-05-18T14:03:54.511Z,4.97
2018-05-18T14:06:20.381Z,5.33
2018-05-18T14:08:46.249Z,6.37
2018-05-18T14:11:12.183Z,6.30
2018-05-18T14:13:38.013Z,6.30
2018-05-18T14:16:03.930Z,5.93
2018-05-18T14:18:29.800Z,5.77
2018-05-18T14:20:55.713Z,6.20
2018-05-18T14:23:21.569Z,5.60
2018-05-18T14:25:47.464Z,5.80
2018-05-18T14:28:13.362Z,5.30
2018-05-18T14:30:39.257Z,4.80
2018-05-18T14:33:05.145Z,6.77
2018-05-18T14:35:31.037Z,5.20
2018-05-18T14:37:56.986Z,5.67
2018-05-18T14:40:22.816Z,5.70
2018-05-18T14:42:48.671Z,6.27
2018-05-18T14:45:14.525Z,4.80
2018-05-18T14:47:41.222Z,5.83
2018-05-18T14:50:07.075Z,6.20
2018-05-18T14:52:32.933Z,6.80
2018-05-18T14:54:58.794Z,5.73
2018-05-18T14:57:24.644Z,6.20
2018-05-18T14:59:50.557Z,5.57
2018-05-18T15:02:16.424Z,6.17
2018-05-18T15:04:42.280Z,5.27
2018-05-18T15:07:08.134Z,5.37
2018-05-18T15:09:33.982Z,5.10
2018-05-18T15:11:59.905Z,6.50
2018-05-18T15:14:25.791Z,5.33
2018-05-18T15:16:51.971Z,5.90
2018-05-18T15:19:17.900Z,5.33
2018-05-18T15:21:43.753Z,5.47
2018-05-18T15:24:10.564Z,5.50
2018-05-18T15:26:36.453Z,5.17
2018-05-18T15:29:03.781Z,5.57
2018-05-18T15:31:29.659Z,5.20
2018-05-18T15:33:55.542Z,5.80
2018-05-18T15:36:21.409Z,5.30
2018-05-18T15:38:47.248Z,4.67
2018-05-18T15:41:13.112Z,5.50
2018-05-18T15:43:38.966Z,4.90
2018-05-18T15:46:04.845Z,5.07
2018-05-18T15:48:30.725Z,5.13
2018-05-18T15:50:56.596Z,5.07
2018-05-18T15:53:22.469Z,4.70
2018-05-18T15:55:48.341Z,6.10
2018-05-18T15:58:14.195Z,5.20
2018-05-18T16:00:40.038Z,5.13
2018-05-18T16:03:05.901Z,5.70
2018-05-18T16:05:31.760Z,5.50
2018-05-18T16:07:57.633Z,6.00
2018-05-18T16:10:23.488Z,5.83
2018-05-18T16:12:49.404Z,6.60
2018-05-18T16:15:15.236Z,5.23
2018-05-18T16:17:41.105Z,5.83
2018-05-18T16:20:06.977Z,5.90
2018-05-18T16:22:32.853Z,6.47
2018-05-18T16:24:58.693Z,5.97
2018-05-18T16:27:24.553Z,5.03
2018-05-18T16:29:50.429Z,6.27
2018-05-18T16:32:16.268Z,7.17
2018-05-18T16:34:42.168Z,5.53
2018-05-18T16:37:08.030Z,4.97
2018-05-18T16:39:33.953Z,5.50
2018-05-18T16:41:59.824Z,5.93
2018-05-18T16:44:27.008Z,5.50
2018-05-18T16:46:52.977Z,5.77
2018-05-18T16:49:18.862Z,5.73
2018-05-18T16:51:44.819Z,5.23
2018-05-18T16:54:10.708Z,5.60
2018-05-18T16:56:36.625Z,5.43
2018-05-18T16:59:02.622Z,5.70
2018-05-18T17:01:28.500Z,5.90
2018-05-18T17:03:54.381Z,6.13
2018-05-18T17:06:20.291Z,5.07
2018-05-18T17:08:46.165Z,5.47
2018-05-18T17:11:12.056Z,6.17
2018-05-18T17:13:37.945Z,5.37
2018-05-18T17:16:03.829Z,6.67
2018-05-18T17:18:29.706Z,5.40
2018-05-18T17:20:55.581Z,5.50
2018-05-18T17:23:21.500Z,5.50
2018-05-18T17:25:47.430Z,5.30
2018-05-18T17:28:13.260Z,5.30
2018-05-18T17:30:39.236Z,5.50
2018-05-18T17:33:05.221Z,6.20
2018-05-18T17:35:31.012Z,5.37
2018-05-18T17:37:56.953Z,5.90
2018-05-18T17:40:22.848Z,6.17
2018-05-18T17:42:48.732Z,6.07
2018-05-18T17:45:14.629Z,5.70
2018-05-18T17:47:40.478Z,6.07
2018-05-18T17:50:06.342Z,5.80
2018-05-18T17:52:32.213Z,5.90
2018-05-18T17:54:58.106Z,6.10
2018-05-18T17:57:24.032Z,5.97
2018-05-18T17:59:49.940Z,5.87
2018-05-18T18:02:15.829Z,5.63
2018-05-18T18:04:45.713Z,5.80
2018-05-18T18:07:11.625Z,6.67
2018-05-18T18:09:37.477Z,6.33
2018-05-18T18:12:03.368Z,5.97
2018-05-18T18:14:29.252Z,6.00
2018-05-18T18:16:55.133Z,6.97
2018-05-18T18:19:21.001Z,7.07
2018-05-18T18:21:46.912Z,6.90
2018-05-18T18:24:12.770Z,5.70
2018-05-18T18:26:38.661Z,6.13
2018-05-18T18:29:04.571Z,5.80
2018-05-18T18:31:30.444Z,7.00
2018-05-18T18:33:56.345Z,6.17
2018-05-18T18:36:22.265Z,6.73
2018-05-18T18:38:48.075Z,6.90
2018-05-18T18:41:13.943Z,6.97
2018-05-18T18:43:39.954Z,6.43
2018-05-18T18:46:05.840Z,7.70
2018-05-18T18:48:31.749Z,7.50
2018-05-18T18:50:57.652Z,6.07
2018-05-18T18:53:23.537Z,6.53
2018-05-18T18:55:49.400Z,6.30
2018-05-18T18:58:15.265Z,6.47
2018-05-18T19:00:41.138Z,6.90
2018-05-18T19:03:07.020Z,6.37
2018-05-18T19:05:32.865Z,6.60
2018-05-18T19:07:58.850Z,7.13
2018-05-18T19:10:24.632Z,7.30
2018-05-18T19:12:50.486Z,8.00
2018-05-18T19:15:16.406Z,8.40
2018-05-18T19:17:42.311Z,7.30
2018-05-18T19:20:08.188Z,8.03
2018-05-18T19:22:34.063Z,6.97
2018-05-18T19:24:59.988Z,6.60
2018-05-18T19:27:25.945Z,6.13
2018-05-18T19:29:51.819Z,7.47
2018-05-18T19:32:17.721Z,7.00
2018-05-18T19:34:43.605Z,5.90
2018-05-18T19:37:09.513Z,6.37
2018-05-18T19:39:35.404Z,5.67
2018-05-18T19:42:01.310Z,6.83
2018-05-18T19:44:27.322Z,5.57
2018-05-18T19:46:53.229Z,5.20
2018-05-18T19:49:19.130Z,6.67
2018-05-18T19:51:45.010Z,5.53
2018-05-18T19:54:10.872Z,6.33
2018-05-18T19:56:36.771Z,5.30
2018-05-18T19:59:02.693Z,6.40
2018-05-18T20:01:28.593Z,6.30
2018-05-18T20:03:54.453Z,6.80
2018-05-18T20:06:20.288Z,6.57
2018-05-18T20:08:46.143Z,7.37
2018-05-18T20:11:12.015Z,6.97
2018-05-18T20:13:37.910Z,7.60
2018-05-18T20:16:03.817Z,7.97
2018-05-18T20:18:29.761Z,9.30
2018-05-18T20:20:55.617Z,8.10
2018-05-18T20:23:21.516Z,8.80
2018-05-18T20:25:47.384Z,10.43
2018-05-18T20:28:13.397Z,10.30
2018-05-18T20:30:39.320Z,10.30
2018-05-18T20:33:05.288Z,11.37
2018-05-18T20:35:31.221Z,9.70
2018-05-18T20:37:57.104Z,11.30
2018-05-18T20:40:22.998Z,10.50
2018-05-18T20:42:48.863Z,11.30
2018-05-18T20:45:14.777Z,11.00
2018-05-18T20:47:40.645Z,10.83
2018-05-18T20:50:06.506Z,11.80
2018-05-18T20:52:32.400Z,11.37
2018-05-18T20:54:58.251Z,12.87
2018-05-18T20:57:24.101Z,12.23
2018-05-18T20:59:49.980Z,13.80
2018-05-18T21:02:15.862Z,12.00
2018-05-18T21:04:41.739Z,12.30
2018-05-18T21:07:07.585Z,12.97
2018-05-18T21:09:33.422Z,12.40
2018-05-18T21:11:59.270Z,13.07
2018-05-18T21:14:25.144Z,11.10
2018-05-18T21:16:50.999Z,11.87
2018-05-18T21:19:16.861Z,12.07
2018-05-18T21:21:42.703Z,12.87
2018-05-18T21:24:08.569Z,12.80
2018-05-18T21:26:34.422Z,12.10
2018-05-18T21:29:03.003Z,11.90
2018-05-18T21:31:28.886Z,14.00
2018-05-18T21:33:54.742Z,12.23
2018-05-18T21:36:20.646Z,12.03
2018-05-18T21:38:46.521Z,12.87
2018-05-18T21:41:12.368Z,12.17
2018-05-18T21:43:38.272Z,12.43
2018-05-18T21:46:04.183Z,12.90
2018-05-18T21:48:30.065Z,12.30
2018-05-18T21:50:55.924Z,11.93
2018-05-18T21:53:21.764Z,12.63
2018-05-18T21:55:47.627Z,12.93
2018-05-18T21:58:13.477Z,15.53
2018-05-18T22:00:39.369Z,11.83
2018-05-18T22:03:05.244Z,12.43
2018-05-18T22:05:31.125Z,10.40
2018-05-18T22:07:57.012Z,12.10
2018-05-18T22:10:22.886Z,13.63
2018-05-18T22:12:48.713Z,12.70
2018-05-18T22:15:14.560Z,12.87
2018-05-18T22:17:40.419Z,13.23
2018-05-18T22:20:06.294Z,12.83
2018-05-18T22:22:32.173Z,13.17
2018-05-18T22:24:58.051Z,11.50
2018-05-18T22:27:23.937Z,12.93
2018-05-18T22:29:49.802Z,13.50
2018-05-18T22:32:15.674Z,12.50
2018-05-18T22:34:41.556Z,14.80
2018-05-18T22:37:07.450Z,13.70
2018-05-18T22:39:33.309Z,12.60
2018-05-18T22:41:59.180Z,14.27
2018-05-18T22:44:27.482Z,13.20
2018-05-18T22:46:53.363Z,12.30
2018-05-18T22:49:19.248Z,13.10
2018-05-18T22:51:45.119Z,14.20
2018-05-18T22:54:10.993Z,12.40
2018-05-18T22:56:36.829Z,12.50
2018-05-18T22:59:02.731Z,13.97
2018-05-18T23:01:28.582Z,13.17
2018-05-18T23:03:54.455Z,13.97
2018-05-18T23:06:20.309Z,12.23
2018-05-18T23:08:46.159Z,12.57
2018-05-18T23:11:12.018Z,14.00
2018-05-18T23:13:37.836Z,12.73
2018-05-18T23:16:03.697Z,12.97
2018-05-18T23:18:29.577Z,13.60
2018-05-18T23:20:55.461Z,14.77
2018-05-18T23:23:21.333Z,14.43
2018-05-18T23:25:47.237Z,13.60
2018-05-18T23:28:13.056Z,13.40
2018-05-18T23:30:38.912Z,11.87
2018-05-18T23:33:04.852Z,12.87
2018-05-18T23:35:30.713Z,13.43
2018-05-18T23:37:56.591Z,12.40
2018-05-18T23:40:22.448Z,13.20
2018-05-18T23:42:48.281Z,13.60
2018-05-18T23:45:14.126Z,13.10
2018-05-18T23:47:39.977Z,13.17
2018-05-18T23:50:05.837Z,13.40
2018-05-18T23:52:31.748Z,12.80
2018-05-18T23:54:57.608Z,12.73
2018-05-18T23:57:23.462Z,11.03
2018-05-18T23:59:49.305Z,13.70
